createdAt,value
2018-04-17T00:01:09.389Z,9.60
2018-04-17T00:03:40.119Z,12.60
2018-04-17T00:06:11.243Z,8.27
2018-04-17T00:08:42.160Z,6.33
2018-04-17T00:11:13.095Z,10.97
2018-04-17T00:13:43.903Z,9.70
2018-04-17T00:16:15.129Z,12.40
2018-04-17T00:18:45.821Z,11.27
2018-04-17T00:21:16.720Z,13.73
2018-04-17T00:23:47.479Z,8.50
2018-04-17T00:26:18.320Z,19.43
2018-04-17T00:28:49.405Z,15.80
2018-04-17T00:31:21.283Z,19.73
2018-04-17T00:33:52.113Z,8.50
2018-04-17T00:36:22.748Z,9.17
2018-04-17T00:38:53.496Z,11.13
2018-04-17T00:41:24.654Z,11.73
2018-04-17T00:43:55.692Z,12.87
2018-04-17T00:46:26.449Z,12.37
2018-04-17T00:48:58.549Z,12.43
2018-04-17T00:51:29.368Z,10.70
2018-04-17T00:54:00.142Z,14.37
2018-04-17T00:56:31.087Z,10.73
2018-04-17T00:59:03.222Z,10.70
2018-04-17T01:01:33.964Z,14.03
2018-04-17T01:04:04.801Z,13.40
2018-04-17T01:06:35.728Z,11.00
2018-04-17T01:09:06.844Z,12.27
2018-04-17T01:11:37.823Z,10.80
2018-04-17T01:14:09.319Z,13.03
2018-04-17T01:16:40.638Z,6.73
2018-04-17T01:19:12.132Z,8.77
2018-04-17T01:21:43.043Z,9.13
2018-04-17T01:24:13.909Z,8.90
2018-04-17T01:26:44.872Z,8.40
2018-04-17T01:29:15.911Z,16.03
2018-04-17T01:31:46.717Z,11.33
2018-04-17T01:34:17.525Z,9.37
2018-04-17T01:36:48.212Z,16.57
2018-04-17T01:39:20.482Z,10.80
2018-04-17T01:41:51.546Z,10.30
2018-04-17T01:44:22.830Z,9.80
2018-04-17T01:46:54.710Z,11.93
2018-04-17T01:49:27.542Z,9.27
2018-04-17T01:51:59.126Z,13.60
2018-04-17T01:54:31.010Z,10.10
2018-04-17T01:57:01.677Z,8.10
2018-04-17T01:59:32.552Z,10.37
2018-04-17T02:02:03.968Z,7.40
2018-04-17T02:04:35.052Z,8.90
2018-04-17T02:07:05.605Z,9.03
2018-04-17T02:09:37.934Z,13.37
2018-04-17T02:12:09.197Z,7.43
2018-04-17T02:14:40.150Z,14.57
2018-04-17T02:17:12.169Z,10.60
2018-04-17T02:19:42.653Z,7.63
2018-04-17T02:22:14.337Z,9.73
2018-04-17T02:24:45.338Z,7.40
2018-04-17T02:27:15.966Z,7.33
2018-04-17T02:29:47.302Z,9.10
2018-04-17T02:32:18.677Z,7.10
2018-04-17T02:34:49.498Z,10.33
2018-04-17T02:37:20.099Z,7.37
2018-04-17T02:39:50.799Z,6.27
2018-04-17T02:42:21.493Z,10.40
2018-04-17T02:44:52.278Z,11.03
2018-04-17T02:47:23.500Z,10.70
2018-04-17T02:49:54.235Z,14.23
2018-04-17T02:52:25.098Z,11.37
2018-04-17T02:54:56.459Z,7.47
2018-04-17T02:57:27.831Z,9.27
2018-04-17T02:59:59.935Z,8.33
2018-04-17T03:02:41.826Z,11.90
2018-04-17T03:05:23.763Z,7.40
2018-04-17T03:08:03.772Z,8.17
2018-04-17T03:10:43.656Z,10.10
2018-04-17T03:13:21.690Z,14.63
2018-04-17T03:16:02.039Z,11.10
2018-04-17T03:18:33.520Z,9.27
2018-04-17T03:21:04.361Z,10.60
2018-04-17T03:23:35.075Z,11.83
2018-04-17T03:26:05.946Z,12.50
2018-04-17T03:28:36.914Z,8.00
2018-04-17T03:31:07.832Z,10.23
2018-04-17T03:33:39.489Z,9.30
2018-04-17T03:36:10.769Z,11.53
2018-04-17T03:38:41.812Z,9.17
2018-04-17T03:41:13.401Z,12.10
2018-04-17T03:43:45.575Z,8.97
2018-04-17T03:46:16.835Z,15.57
2018-04-17T03:48:47.543Z,11.33
2018-04-17T03:51:18.675Z,14.73
2018-04-17T03:53:49.681Z,10.93
2018-04-17T03:56:20.362Z,9.23
2018-04-17T03:58:51.740Z,13.10
2018-04-17T04:01:23.196Z,10.53
2018-04-17T04:03:54.037Z,12.47
2018-04-17T04:06:25.371Z,13.30
2018-04-17T04:08:56.449Z,9.73
2018-04-17T04:11:27.981Z,12.17
2018-04-17T04:13:59.491Z,14.90
2018-04-17T04:16:38.662Z,12.43
2018-04-17T04:20:23.032Z,19.93
2018-04-17T04:25:01.389Z,16.77
2018-04-17T04:27:32.524Z,16.23
2018-04-17T04:30:04.320Z,16.87
2018-04-17T04:32:35.731Z,18.90
2018-04-17T04:35:07.019Z,20.50
2018-04-17T04:37:37.976Z,21.47
2018-04-17T04:40:08.826Z,17.77
2018-04-17T04:42:40.138Z,13.90
2018-04-17T04:45:11.075Z,18.37
2018-04-17T04:47:42.999Z,19.90
2018-04-17T04:50:14.054Z,21.70
2018-04-17T04:52:44.816Z,19.27
2018-04-17T04:55:15.439Z,14.77
2018-04-17T04:57:47.485Z,20.40
2018-04-17T05:00:18.323Z,21.67
2018-04-17T05:02:49.340Z,22.47
2018-04-17T05:05:21.837Z,23.57
2018-04-17T05:07:53.446Z,28.17
2018-04-17T05:10:24.377Z,23.83
2018-04-17T05:13:06.145Z,21.00
2018-04-17T05:15:40.975Z,19.03
2018-04-17T05:18:13.138Z,22.87
2018-04-17T05:20:44.090Z,26.60
2018-04-17T05:23:15.146Z,23.60
2018-04-17T05:25:49.665Z,16.93
2018-04-17T05:28:26.364Z,22.10
2018-04-17T05:30:58.262Z,20.50
2018-04-17T05:33:30.458Z,23.50
2018-04-17T05:36:01.387Z,16.53
2018-04-17T05:38:32.556Z,25.43
2018-04-17T05:41:04.109Z,23.70
2018-04-17T05:43:35.437Z,22.97
2018-04-17T05:46:07.627Z,23.60
2018-04-17T05:48:39.273Z,22.10
2018-04-17T05:51:11.030Z,23.90
2018-04-17T05:53:42.284Z,28.20
2018-04-17T05:56:13.132Z,30.07
2018-04-17T05:58:44.399Z,32.70
2018-04-17T06:01:15.455Z,38.70
2018-04-17T06:03:46.531Z,36.20
2018-04-17T06:06:17.727Z,39.70
2018-04-17T06:08:50.356Z,34.30
2018-04-17T06:11:21.642Z,41.60
2018-04-17T06:13:52.674Z,42.83
2018-04-17T06:16:23.588Z,42.67
2018-04-17T06:18:54.511Z,52.30
2018-04-17T06:21:25.449Z,55.13
2018-04-17T06:23:56.534Z,44.10
2018-04-17T06:26:36.440Z,42.47
2018-04-17T06:29:08.062Z,44.93
2018-04-17T06:31:39.827Z,49.93
2018-04-17T06:34:10.615Z,45.10
2018-04-17T06:36:41.670Z,46.50
2018-04-17T06:39:12.618Z,50.73
2018-04-17T06:41:44.085Z,44.50
2018-04-17T06:44:15.283Z,44.50
2018-04-17T06:46:46.829Z,42.80
2018-04-17T06:49:18.254Z,57.10
2018-04-17T06:51:49.325Z,40.33
2018-04-17T06:54:20.507Z,46.17
2018-04-17T06:56:51.393Z,45.57
2018-04-17T06:59:22.362Z,51.23
2018-04-17T07:01:53.051Z,46.80
2018-04-17T07:04:23.829Z,48.10
2018-04-17T07:06:54.750Z,47.40
2018-04-17T07:09:25.739Z,43.07
2018-04-17T07:11:56.938Z,44.20
2018-04-17T07:14:27.799Z,43.57
2018-04-17T07:16:58.703Z,40.70
2018-04-17T07:19:29.933Z,45.60
2018-04-17T07:22:02.183Z,41.87
2018-04-17T07:24:34.288Z,43.37
2018-04-17T07:27:06.226Z,41.03
2018-04-17T07:29:37.159Z,39.60
2018-04-17T07:32:09.410Z,41.17
2018-04-17T07:34:40.337Z,40.27
2018-04-17T07:37:11.719Z,34.93
2018-04-17T07:39:42.872Z,42.37
2018-04-17T07:42:13.715Z,36.70
2018-04-17T07:44:44.619Z,34.83
2018-04-17T07:47:24.278Z,34.27
2018-04-17T07:49:55.239Z,32.80
2018-04-17T07:52:26.694Z,45.70
2018-04-17T07:54:57.612Z,35.50
2018-04-17T07:57:29.158Z,34.00
2018-04-17T07:59:59.751Z,42.53
2018-04-17T08:02:30.684Z,43.63
2018-04-17T08:05:01.614Z,32.77
2018-04-17T08:07:32.811Z,34.57
2018-04-17T08:10:03.554Z,43.10
2018-04-17T08:12:35.448Z,41.13
2018-04-17T08:15:06.097Z,39.40
2018-04-17T08:17:37.520Z,33.00
2018-04-17T08:20:08.627Z,43.87
2018-04-17T08:22:39.468Z,38.27
2018-04-17T08:25:11.081Z,32.03
2018-04-17T08:27:41.939Z,31.50
2018-04-17T08:30:12.667Z,38.97
2018-04-17T08:32:44.282Z,39.87
2018-04-17T08:35:15.213Z,31.20
2018-04-17T08:37:46.333Z,34.77
2018-04-17T08:40:17.533Z,32.17
2018-04-17T08:42:48.406Z,34.20
2018-04-17T08:45:20.817Z,31.17
2018-04-17T08:47:53.144Z,29.77
2018-04-17T08:50:24.181Z,28.80
2018-04-17T08:52:56.024Z,27.00
2018-04-17T08:55:26.594Z,29.80
2018-04-17T08:57:57.388Z,27.70
2018-04-17T09:00:28.060Z,25.03
2018-04-17T09:02:59.336Z,24.07
2018-04-17T09:05:30.309Z,40.27
2018-04-17T09:08:01.254Z,29.20
2018-04-17T09:10:32.640Z,22.83
2018-04-17T09:13:03.706Z,23.63
2018-04-17T09:15:34.763Z,25.83
2018-04-17T09:18:06.332Z,21.90
2018-04-17T09:20:37.399Z,12.40
2018-04-17T09:23:10.044Z,24.27
2018-04-17T09:25:41.851Z,23.73
2018-04-17T09:28:13.035Z,25.80
2018-04-17T09:30:44.329Z,22.80
2018-04-17T09:33:16.151Z,22.07
2018-04-17T09:35:48.165Z,24.40
2018-04-17T09:38:18.959Z,29.37
2018-04-17T09:40:49.924Z,23.87
2018-04-17T09:43:22.966Z,19.33
2018-04-17T09:45:53.969Z,15.77
2018-04-17T09:48:25.392Z,17.80
2018-04-17T09:50:56.762Z,20.53
2018-04-17T09:53:27.965Z,23.70
2018-04-17T09:56:00.001Z,19.70
2018-04-17T09:58:30.866Z,20.00
2018-04-17T10:01:02.451Z,14.80
2018-04-17T10:03:33.353Z,13.17
2018-04-17T10:06:04.118Z,15.37
2018-04-17T10:08:34.926Z,12.70
2018-04-17T10:11:05.834Z,18.70
2018-04-17T10:13:36.555Z,22.07
2018-04-17T10:16:09.057Z,13.80
2018-04-17T10:18:39.968Z,16.20
2018-04-17T10:21:10.763Z,14.83
2018-04-17T10:23:41.617Z,16.67
2018-04-17T10:26:12.378Z,17.60
2018-04-17T10:28:43.541Z,12.10
2018-04-17T10:31:14.129Z,12.27
2018-04-17T10:33:46.509Z,13.23
2018-04-17T10:36:17.661Z,19.07
2018-04-17T10:38:49.647Z,14.93
2018-04-17T10:41:20.431Z,22.70
2018-04-17T10:43:51.205Z,13.57
2018-04-17T10:46:22.028Z,14.80
2018-04-17T10:48:52.890Z,16.40
2018-04-17T10:51:24.618Z,14.17
2018-04-17T10:53:55.409Z,19.77
2018-04-17T10:56:26.800Z,20.00
2018-04-17T10:58:57.508Z,22.17
2018-04-17T11:01:28.406Z,19.13
2018-04-17T11:03:59.264Z,16.60
2018-04-17T11:06:30.273Z,20.63
2018-04-17T11:09:01.639Z,21.63
2018-04-17T11:11:32.857Z,22.50
2018-04-17T11:14:04.082Z,20.67
2018-04-17T11:16:35.038Z,22.83
2018-04-17T11:19:05.868Z,30.83
2018-04-17T11:21:36.517Z,18.97
2018-04-17T11:24:07.895Z,18.63
2018-04-17T11:26:38.708Z,22.90
2018-04-17T11:29:09.491Z,22.33
2018-04-17T11:31:40.335Z,17.97
2018-04-17T11:34:11.223Z,15.70
2018-04-17T11:36:41.948Z,28.50
2018-04-17T11:39:13.140Z,18.80
2018-04-17T11:41:43.892Z,21.10
2018-04-17T11:44:14.679Z,23.77
2018-04-17T11:46:45.886Z,21.57
2018-04-17T11:49:16.686Z,23.30
2018-04-17T11:51:47.368Z,19.87
2018-04-17T11:54:18.251Z,23.10
2018-04-17T11:56:49.396Z,27.47
2018-04-17T11:59:20.437Z,16.73
2018-04-17T12:01:51.091Z,23.93
2018-04-17T12:04:21.928Z,26.60
2018-04-17T12:06:52.882Z,22.50
2018-04-17T12:09:23.630Z,19.20
2018-04-17T12:11:54.526Z,19.27
2018-04-17T12:14:25.410Z,25.10
2018-04-17T12:16:57.019Z,20.33
2018-04-17T12:19:28.246Z,26.43
2018-04-17T12:21:59.106Z,21.30
2018-04-17T12:24:29.913Z,26.80
2018-04-17T12:27:02.011Z,25.30
2018-04-17T12:29:32.883Z,22.90
2018-04-17T12:32:03.840Z,24.47
2018-04-17T12:34:35.173Z,21.23
2018-04-17T12:37:06.032Z,25.93
2018-04-17T12:39:37.079Z,26.30
2018-04-17T12:42:08.127Z,22.17
2018-04-17T12:44:39.390Z,26.93
2018-04-17T12:47:10.241Z,21.23
2018-04-17T12:49:42.266Z,25.73
2018-04-17T12:52:13.091Z,21.73
2018-04-17T12:54:44.519Z,24.83
2018-04-17T12:57:15.927Z,22.60
2018-04-17T12:59:46.921Z,21.47
2018-04-17T13:02:17.808Z,26.93
2018-04-17T13:04:48.838Z,30.23
2018-04-17T13:07:19.679Z,18.00
2018-04-17T13:09:51.626Z,22.83
2018-04-17T13:12:22.544Z,22.30
2018-04-17T13:14:53.617Z,22.03
2018-04-17T13:17:24.715Z,24.73
2018-04-17T13:19:56.390Z,23.43
2018-04-17T13:22:27.396Z,22.10
2018-04-17T13:24:58.349Z,19.73
2018-04-17T13:27:29.385Z,26.00
2018-04-17T13:30:00.619Z,21.10
2018-04-17T13:32:31.416Z,20.20
2018-04-17T13:35:02.083Z,25.73
2018-04-17T13:37:32.677Z,22.13
2018-04-17T13:40:03.603Z,22.63
2018-04-17T13:42:34.285Z,27.27
2018-04-17T13:45:07.498Z,22.80
2018-04-17T13:47:39.792Z,26.90
2018-04-17T13:50:10.382Z,26.97
2018-04-17T13:52:41.773Z,26.17
2018-04-17T13:55:12.562Z,24.80
2018-04-17T13:57:44.584Z,27.80
2018-04-17T14:00:15.219Z,23.20
2018-04-17T14:02:46.791Z,25.50
2018-04-17T14:05:19.630Z,23.60
2018-04-17T14:07:50.394Z,21.27
2018-04-17T14:10:22.117Z,30.93
2018-04-17T14:12:54.412Z,24.33
2018-04-17T14:15:27.941Z,27.67
2018-04-17T14:17:59.798Z,22.00
2018-04-17T14:20:30.820Z,24.23
2018-04-17T14:23:02.592Z,22.80
2018-04-17T14:25:34.234Z,22.30
2018-04-17T14:28:05.171Z,22.03
2018-04-17T14:30:36.500Z,26.10
2018-04-17T14:33:07.446Z,24.07
2018-04-17T14:35:39.174Z,26.23
2018-04-17T14:38:10.195Z,30.43
2018-04-17T14:40:42.127Z,33.43
2018-04-17T14:43:12.784Z,26.43
2018-04-17T14:45:43.591Z,28.80
2018-04-17T14:48:14.843Z,28.20
2018-04-17T14:50:46.203Z,29.37
2018-04-17T14:53:17.445Z,31.57
2018-04-17T14:55:49.722Z,26.77
2018-04-17T14:58:20.665Z,28.83
2018-04-17T15:00:52.941Z,25.63
2018-04-17T15:03:23.865Z,24.80
2018-04-17T15:05:54.795Z,28.43
2018-04-17T15:08:26.103Z,28.70
2018-04-17T15:10:57.478Z,28.00
2018-04-17T15:13:28.407Z,25.50
2018-04-17T15:15:59.200Z,24.83
2018-04-17T15:18:32.721Z,22.47
2018-04-17T15:21:07.352Z,28.43
2018-04-17T15:23:42.117Z,30.23
2018-04-17T15:26:17.349Z,28.00
2018-04-17T15:28:54.030Z,25.87
2018-04-17T15:31:29.951Z,30.63
2018-04-17T15:34:03.752Z,27.17
2018-04-17T15:36:38.720Z,27.27
2018-04-17T15:39:14.559Z,26.93
2018-04-17T15:41:45.766Z,27.30
2018-04-17T15:44:16.616Z,27.50
2018-04-17T15:46:47.724Z,27.53
2018-04-17T15:49:18.590Z,25.70
2018-04-17T15:51:49.962Z,26.57
2018-04-17T15:54:21.564Z,26.73
2018-04-17T15:56:52.770Z,28.30
2018-04-17T15:59:23.952Z,20.47
2018-04-17T16:01:54.849Z,21.50
2018-04-17T16:04:26.597Z,30.97
2018-04-17T16:06:57.840Z,26.80
2018-04-17T16:09:28.565Z,22.17
2018-04-17T16:11:59.839Z,26.17
2018-04-17T16:14:30.702Z,20.53
2018-04-17T16:17:01.686Z,24.73
2018-04-17T16:19:32.591Z,23.10
2018-04-17T16:22:03.743Z,23.30
2018-04-17T16:24:34.558Z,30.27
2018-04-17T16:27:05.503Z,26.00
2018-04-17T16:29:36.377Z,28.63
2018-04-17T16:32:07.402Z,23.50
2018-04-17T16:34:38.290Z,18.60
2018-04-17T16:37:10.085Z,19.73
2018-04-17T16:39:40.880Z,18.93
2018-04-17T16:42:12.065Z,26.23
2018-04-17T16:44:43.277Z,24.73
2018-04-17T16:47:14.007Z,21.63
2018-04-17T16:49:44.879Z,19.77
2018-04-17T16:52:16.186Z,23.87
2018-04-17T16:54:48.210Z,20.93
2018-04-17T16:57:19.210Z,31.80
2018-04-17T16:59:50.986Z,24.17
2018-04-17T17:02:21.702Z,20.77
2018-04-17T17:04:52.893Z,20.70
2018-04-17T17:07:25.095Z,26.23
2018-04-17T17:09:56.208Z,21.57
2018-04-17T17:12:27.219Z,26.30
2018-04-17T17:14:58.094Z,25.77
2018-04-17T17:17:31.567Z,17.75
2018-04-17T17:20:02.384Z,20.53
2018-04-17T17:22:34.266Z,21.37
2018-04-17T17:25:05.833Z,17.93
2018-04-17T17:27:37.867Z,22.23
2018-04-17T17:30:09.469Z,25.47
2018-04-17T17:32:40.570Z,24.30
2018-04-17T17:35:12.451Z,25.30
2018-04-17T17:37:43.290Z,36.27
2018-04-17T17:40:14.934Z,20.83
2018-04-17T17:42:46.104Z,19.83
2018-04-17T17:45:16.906Z,22.17
2018-04-17T17:47:48.077Z,26.17
2018-04-17T17:50:18.906Z,25.53
2018-04-17T17:52:49.827Z,19.77
2018-04-17T17:55:21.282Z,16.20
2018-04-17T17:57:52.750Z,19.07
2018-04-17T18:00:23.725Z,15.40
2018-04-17T18:02:54.506Z,18.63
2018-04-17T18:05:26.756Z,19.87
2018-04-17T18:08:01.443Z,14.07
2018-04-17T18:10:33.111Z,15.10
2018-04-17T18:13:04.107Z,19.23
2018-04-17T18:15:35.122Z,10.97
2018-04-17T18:18:08.157Z,15.77
2018-04-17T18:20:39.972Z,16.63
2018-04-17T18:23:11.284Z,18.07
2018-04-17T18:25:42.629Z,20.57
2018-04-17T18:28:13.616Z,13.20
2018-04-17T18:30:44.267Z,12.47
2018-04-17T18:33:15.511Z,11.57
2018-04-17T18:35:47.026Z,16.73
2018-04-17T18:38:18.191Z,15.83
2018-04-17T18:40:49.030Z,13.40
2018-04-17T18:43:23.781Z,12.43
2018-04-17T18:45:55.612Z,24.43
2018-04-17T18:48:26.584Z,20.83
2018-04-17T18:50:57.414Z,13.50
2018-04-17T18:53:29.110Z,18.53
2018-04-17T18:55:59.893Z,14.77
2018-04-17T18:58:30.744Z,14.17
2018-04-17T19:01:02.329Z,16.37
2018-04-17T19:03:33.436Z,14.90
2018-04-17T19:06:04.019Z,19.60
2018-04-17T19:08:34.909Z,12.30
2018-04-17T19:11:05.744Z,15.10
2018-04-17T19:13:36.772Z,16.90
2018-04-17T19:16:08.982Z,19.40
2018-04-17T19:18:40.897Z,13.83
2018-04-17T19:21:12.681Z,12.33
2018-04-17T19:23:45.023Z,18.53
2018-04-17T19:26:16.573Z,15.33
2018-04-17T19:28:47.274Z,20.70
2018-04-17T19:31:18.300Z,22.40
2018-04-17T19:33:50.492Z,16.00
2018-04-17T19:36:21.458Z,20.33
2018-04-17T19:38:52.563Z,19.70
2018-04-17T19:41:23.324Z,17.10
2018-04-17T19:43:56.748Z,19.00
2018-04-17T19:46:39.359Z,23.93
2018-04-17T19:49:19.215Z,25.30
2018-04-17T19:51:50.647Z,23.77
2018-04-17T19:54:22.295Z,23.27
2018-04-17T19:56:53.488Z,23.60
2018-04-17T19:59:24.600Z,24.47
2018-04-17T20:01:55.559Z,27.80
2018-04-17T20:04:26.800Z,17.97
2018-04-17T20:06:58.338Z,23.00
2018-04-17T20:09:29.197Z,20.00
2018-04-17T20:12:00.270Z,20.47
2018-04-17T20:14:31.852Z,23.43
2018-04-17T20:17:03.718Z,21.83
2018-04-17T20:19:34.810Z,23.73
2018-04-17T20:22:06.282Z,26.90
2018-04-17T20:24:37.240Z,27.30
2018-04-17T20:27:08.979Z,25.90
2018-04-17T20:29:40.164Z,24.73
2018-04-17T20:32:10.855Z,25.97
2018-04-17T20:34:42.202Z,19.50
2018-04-17T20:37:13.026Z,20.13
2018-04-17T20:39:44.930Z,25.00
2018-04-17T20:42:15.956Z,24.33
2018-04-17T20:44:47.712Z,30.07
2018-04-17T20:47:19.401Z,22.57
2018-04-17T20:49:51.323Z,27.50
2018-04-17T20:52:23.446Z,25.00
2018-04-17T20:54:54.448Z,19.43
2018-04-17T20:57:26.608Z,19.90
2018-04-17T20:59:57.442Z,19.80
2018-04-17T21:02:28.311Z,21.00
2018-04-17T21:05:00.080Z,18.63
2018-04-17T21:07:31.053Z,24.93
2018-04-17T21:10:02.408Z,25.70
2018-04-17T21:12:33.879Z,29.93
2018-04-17T21:15:06.242Z,27.90
2018-04-17T21:17:37.998Z,23.93
2018-04-17T21:20:09.967Z,26.17
2018-04-17T21:22:41.306Z,23.33
2018-04-17T21:25:12.043Z,25.90
2018-04-17T21:27:43.013Z,21.03
2018-04-17T21:30:14.965Z,23.33
2018-04-17T21:32:45.900Z,20.07
2018-04-17T21:35:16.745Z,19.13
2018-04-17T21:37:47.937Z,24.00
2018-04-17T21:40:20.472Z,20.63
2018-04-17T21:42:51.663Z,21.40
2018-04-17T21:45:22.529Z,22.60
2018-04-17T21:47:53.297Z,23.07
2018-04-17T21:50:24.424Z,24.57
2018-04-17T21:52:55.362Z,19.80
2018-04-17T21:55:26.111Z,19.70
2018-04-17T21:57:57.266Z,21.93
2018-04-17T22:00:28.266Z,26.17
2018-04-17T22:02:59.180Z,24.83
2018-04-17T22:05:29.904Z,24.33
2018-04-17T22:08:00.834Z,22.80
2018-04-17T22:10:31.639Z,25.33
2018-04-17T22:13:04.116Z,26.13
2018-04-17T22:15:34.874Z,27.10
2018-04-17T22:18:05.627Z,23.77
2018-04-17T22:20:36.546Z,27.33
2018-04-17T22:23:08.073Z,24.13
2018-04-17T22:25:39.047Z,25.40
2018-04-17T22:28:09.877Z,21.97
2018-04-17T22:30:40.654Z,23.80
2018-04-17T22:35:47.609Z,21.20
2018-04-17T22:40:59.063Z,23.37
2018-04-17T22:43:31.171Z,26.10
2018-04-17T22:46:02.225Z,27.40
2018-04-17T22:48:33.248Z,25.03
2018-04-17T22:51:04.005Z,25.87
2018-04-17T22:53:35.983Z,24.33
2018-04-17T22:56:06.834Z,27.83
2018-04-17T22:58:37.727Z,30.20
2018-04-17T23:01:08.966Z,24.17
2018-04-17T23:03:40.198Z,30.40
2018-04-17T23:06:11.534Z,27.23
2018-04-17T23:08:43.712Z,25.77
2018-04-17T23:11:14.996Z,24.80
2018-04-17T23:13:45.702Z,21.40
2018-04-17T23:16:16.391Z,20.40
2018-04-17T23:18:47.474Z,21.70
2018-04-17T23:21:18.871Z,21.57
2018-04-17T23:23:49.724Z,20.57
2018-04-17T23:26:20.468Z,28.90
2018-04-17T23:28:51.122Z,27.63
2018-04-17T23:31:22.020Z,27.87
2018-04-17T23:33:53.066Z,26.67
2018-04-17T23:36:24.002Z,26.47
2018-04-17T23:38:54.845Z,23.67
2018-04-17T23:41:26.381Z,22.17
2018-04-17T23:43:56.862Z,25.20
2018-04-17T23:46:27.790Z,26.23
2018-04-17T23:48:58.534Z,21.90
2018-04-17T23:51:29.692Z,21.83
2018-04-17T23:54:00.415Z,22.20
2018-04-17T23:56:31.352Z,21.87
2018-04-17T23:59:02.232Z,24.13
